sensor_id;sensor_type;location;lat;lon;timestamp;P1;durP1;ratioP1;P2;durP2;ratioP2
2390;SDS011;22957;50.824;4.360;2023-04-23T00:01:46;19.30;;;15.00;;
2390;SDS011;22957;50.824;4.360;2023-04-23T00:04:12;21.53;;;16.90;;
2390;SDS011;22957;50.824;4.360;2023-04-23T00:06:43;24.70;;;16.00;;
2390;SDS011;22957;50.824;4.360;2023-04-23T00:09:11;22.77;;;17.33;;
2390;SDS011;22957;50.824;4.360;2023-04-23T00:11:38;18.67;;;14.53;;
2390;SDS011;22957;50.824;4.360;2023-04-23T00:14:04;23.40;;;18.13;;
2390;SDS011;22957;50.824;4.360;2023-04-23T00:16:30;29.70;;;21.13;;
2390;SDS011;22957;50.824;4.360;2023-04-23T00:18:56;25.00;;;18.97;;
2390;SDS011;22957;50.824;4.360;2023-04-23T00:21:22;22.70;;;17.50;;
2390;SDS011;22957;50.824;4.360;2023-04-23T00:23:47;19.37;;;15.30;;
2390;SDS011;22957;50.824;4.360;2023-04-23T00:26:13;17.37;;;14.27;;
2390;SDS011;22957;50.824;4.360;2023-04-23T00:28:38;17.67;;;15.13;;
2390;SDS011;22957;50.824;4.360;2023-04-23T00:31:04;16.80;;;13.30;;
2390;SDS011;22957;50.824;4.360;2023-04-23T00:33:30;17.80;;;14.43;;
2390;SDS011;22957;50.824;4.360;2023-04-23T00:35:55;21.03;;;15.17;;
2390;SDS011;22957;50.824;4.360;2023-04-23T00:38:21;14.07;;;10.97;;
2390;SDS011;22957;50.824;4.360;2023-04-23T00:40:47;17.23;;;13.30;;
2390;SDS011;22957;50.824;4.360;2023-04-23T00:43:12;17.27;;;14.23;;
2390;SDS011;22957;50.824;4.360;2023-04-23T00:45:39;14.37;;;12.67;;
2390;SDS011;22957;50.824;4.360;2023-04-23T00:48:05;17.20;;;14.47;;
2390;SDS011;22957;50.824;4.360;2023-04-23T00:50:32;17.90;;;14.50;;
2390;SDS011;22957;50.824;4.360;2023-04-23T00:52:57;15.73;;;12.70;;
2390;SDS011;22957;50.824;4.360;2023-04-23T00:55:23;16.17;;;13.27;;
2390;SDS011;22957;50.824;4.360;2023-04-23T00:57:49;14.87;;;12.60;;
2390;SDS011;22957;50.824;4.360;2023-04-23T01:00:14;14.10;;;11.23;;
2390;SDS011;22957;50.824;4.360;2023-04-23T01:02:41;13.83;;;12.20;;
2390;SDS011;22957;50.824;4.360;2023-04-23T01:05:08;15.33;;;11.80;;
2390;SDS011;22957;50.824;4.360;2023-04-23T01:07:35;14.13;;;11.10;;
2390;SDS011;22957;50.824;4.360;2023-04-23T01:10:02;14.53;;;11.00;;
2390;SDS011;22957;50.824;4.360;2023-04-23T01:12:29;14.57;;;11.43;;
2390;SDS011;22957;50.824;4.360;2023-04-23T01:14:55;11.13;;;9.33;;
2390;SDS011;22957;50.824;4.360;2023-04-23T01:17:21;12.00;;;10.23;;
2390;SDS011;22957;50.824;4.360;2023-04-23T01:19:46;12.73;;;10.03;;
2390;SDS011;22957;50.824;4.360;2023-04-23T01:22:13;14.60;;;11.23;;
2390;SDS011;22957;50.824;4.360;2023-04-23T01:24:40;13.23;;;10.30;;
2390;SDS011;22957;50.824;4.360;2023-04-23T01:27:09;11.00;;;8.57;;
2390;SDS011;22957;50.824;4.360;2023-04-23T01:29:35;10.63;;;9.53;;
2390;SDS011;22957;50.824;4.360;2023-04-23T01:32:02;8.77;;;7.43;;
2390;SDS011;22957;50.824;4.360;2023-04-23T01:34:28;8.50;;;7.60;;
2390;SDS011;22957;50.824;4.360;2023-04-23T01:36:55;9.60;;;8.60;;
2390;SDS011;22957;50.824;4.360;2023-04-23T01:39:22;10.57;;;8.53;;
2390;SDS011;22957;50.824;4.360;2023-04-23T01:41:48;12.50;;;8.70;;
2390;SDS011;22957;50.824;4.360;2023-04-23T01:44:14;16.70;;;13.80;;
2390;SDS011;22957;50.824;4.360;2023-04-23T01:46:40;20.37;;;11.60;;
2390;SDS011;22957;50.824;4.360;2023-04-23T01:49:06;11.20;;;10.00;;
2390;SDS011;22957;50.824;4.360;2023-04-23T01:51:32;14.13;;;10.10;;
2390;SDS011;22957;50.824;4.360;2023-04-23T01:53:58;18.70;;;12.07;;
2390;SDS011;22957;50.824;4.360;2023-04-23T01:56:24;15.50;;;11.00;;
2390;SDS011;22957;50.824;4.360;2023-04-23T01:58:52;12.43;;;10.17;;
2390;SDS011;22957;50.824;4.360;2023-04-23T02:01:18;12.17;;;9.20;;
2390;SDS011;22957;50.824;4.360;2023-04-23T02:03:44;17.93;;;10.60;;
2390;SDS011;22957;50.824;4.360;2023-04-23T02:06:10;10.17;;;9.17;;
2390;SDS011;22957;50.824;4.360;2023-04-23T02:08:37;12.23;;;9.77;;
2390;SDS011;22957;50.824;4.360;2023-04-23T02:11:04;18.47;;;11.40;;
2390;SDS011;22957;50.824;4.360;2023-04-23T02:13:32;18.30;;;11.60;;
2390;SDS011;22957;50.824;4.360;2023-04-23T02:15:58;14.63;;;10.47;;
2390;SDS011;22957;50.824;4.360;2023-04-23T02:18:24;28.43;;;15.27;;
2390;SDS011;22957;50.824;4.360;2023-04-23T02:20:49;75.23;;;35.37;;
2390;SDS011;22957;50.824;4.360;2023-04-23T02:23:15;23.47;;;15.80;;
2390;SDS011;22957;50.824;4.360;2023-04-23T02:25:41;26.80;;;15.80;;
2390;SDS011;22957;50.824;4.360;2023-04-23T02:28:07;18.13;;;12.50;;
2390;SDS011;22957;50.824;4.360;2023-04-23T02:30:35;14.50;;;10.17;;
2390;SDS011;22957;50.824;4.360;2023-04-23T02:33:01;15.87;;;9.80;;
2390;SDS011;22957;50.824;4.360;2023-04-23T02:35:27;10.47;;;8.30;;
2390;SDS011;22957;50.824;4.360;2023-04-23T02:37:54;12.97;;;8.47;;
2390;SDS011;22957;50.824;4.360;2023-04-23T02:40:20;15.30;;;9.73;;
2390;SDS011;22957;50.824;4.360;2023-04-23T02:42:45;11.60;;;9.47;;
2390;SDS011;22957;50.824;4.360;2023-04-23T02:45:11;10.63;;;7.43;;
2390;SDS011;22957;50.824;4.360;2023-04-23T02:47:37;10.50;;;8.13;;
2390;SDS011;22957;50.824;4.360;2023-04-23T02:50:03;9.97;;;8.60;;
2390;SDS011;22957;50.824;4.360;2023-04-23T02:52:30;8.50;;;7.60;;
2390;SDS011;22957;50.824;4.360;2023-04-23T02:54:57;12.73;;;7.83;;
2390;SDS011;22957;50.824;4.360;2023-04-23T02:57:27;15.60;;;10.67;;
2390;SDS011;22957;50.824;4.360;2023-04-23T02:59:53;12.00;;;9.00;;
2390;SDS011;22957;50.824;4.360;2023-04-23T03:02:19;13.30;;;8.20;;
2390;SDS011;22957;50.824;4.360;2023-04-23T03:04:44;11.53;;;8.13;;
2390;SDS011;22957;50.824;4.360;2023-04-23T03:07:10;11.70;;;8.77;;
2390;SDS011;22957;50.824;4.360;2023-04-23T03:09:37;9.57;;;7.93;;
2390;SDS011;22957;50.824;4.360;2023-04-23T03:12:03;14.37;;;9.30;;
2390;SDS011;22957;50.824;4.360;2023-04-23T03:14:29;12.10;;;9.37;;
2390;SDS011;22957;50.824;4.360;2023-04-23T03:16:54;9.40;;;7.80;;
2390;SDS011;22957;50.824;4.360;2023-04-23T03:19:20;9.23;;;8.27;;
2390;SDS011;22957;50.824;4.360;2023-04-23T03:21:46;9.77;;;7.00;;
2390;SDS011;22957;50.824;4.360;2023-04-23T03:24:12;14.60;;;9.37;;
2390;SDS011;22957;50.824;4.360;2023-04-23T03:26:39;13.43;;;8.17;;
2390;SDS011;22957;50.824;4.360;2023-04-23T03:29:04;12.53;;;9.20;;
2390;SDS011;22957;50.824;4.360;2023-04-23T03:31:30;9.27;;;7.00;;
2390;SDS011;22957;50.824;4.360;2023-04-23T03:33:56;16.37;;;8.10;;
2390;SDS011;22957;50.824;4.360;2023-04-23T03:36:21;13.50;;;7.50;;
2390;SDS011;22957;50.824;4.360;2023-04-23T03:38:47;13.73;;;7.50;;
2390;SDS011;22957;50.824;4.360;2023-04-23T03:41:13;11.60;;;6.57;;
2390;SDS011;22957;50.824;4.360;2023-04-23T03:43:38;9.13;;;6.60;;
2390;SDS011;22957;50.824;4.360;2023-04-23T03:46:04;11.70;;;7.07;;
2390;SDS011;22957;50.824;4.360;2023-04-23T03:48:30;12.13;;;7.80;;
2390;SDS011;22957;50.824;4.360;2023-04-23T03:50:56;9.90;;;6.80;;
2390;SDS011;22957;50.824;4.360;2023-04-23T03:53:22;12.07;;;6.77;;
2390;SDS011;22957;50.824;4.360;2023-04-23T03:55:47;9.90;;;7.43;;
2390;SDS011;22957;50.824;4.360;2023-04-23T03:58:13;10.07;;;7.27;;
2390;SDS011;22957;50.824;4.360;2023-04-23T04:00:39;7.60;;;6.60;;
2390;SDS011;22957;50.824;4.360;2023-04-23T04:03:05;11.13;;;6.27;;
2390;SDS011;22957;50.824;4.360;2023-04-23T04:05:32;7.83;;;6.20;;
2390;SDS011;22957;50.824;4.360;2023-04-23T04:07:58;12.00;;;7.70;;
2390;SDS011;22957;50.824;4.360;2023-04-23T04:10:24;10.53;;;6.60;;
2390;SDS011;22957;50.824;4.360;2023-04-23T04:12:50;10.67;;;6.80;;
2390;SDS011;22957;50.824;4.360;2023-04-23T04:15:15;8.00;;;6.33;;
2390;SDS011;22957;50.824;4.360;2023-04-23T04:17:43;10.80;;;7.13;;
2390;SDS011;22957;50.824;4.360;2023-04-23T04:20:10;9.40;;;7.03;;
2390;SDS011;22957;50.824;4.360;2023-04-23T04:22:35;12.37;;;6.00;;
2390;SDS011;22957;50.824;4.360;2023-04-23T04:25:01;7.80;;;6.47;;
2390;SDS011;22957;50.824;4.360;2023-04-23T04:27:27;7.57;;;6.23;;
2390;SDS011;22957;50.824;4.360;2023-04-23T04:29:53;9.63;;;6.37;;
2390;SDS011;22957;50.824;4.360;2023-04-23T04:32:18;11.13;;;6.37;;
2390;SDS011;22957;50.824;4.360;2023-04-23T04:34:46;9.33;;;6.10;;
2390;SDS011;22957;50.824;4.360;2023-04-23T04:37:11;9.50;;;6.13;;
2390;SDS011;22957;50.824;4.360;2023-04-23T04:39:37;10.43;;;5.70;;
2390;SDS011;22957;50.824;4.360;2023-04-23T04:42:02;7.33;;;5.87;;
2390;SDS011;22957;50.824;4.360;2023-04-23T04:44:28;8.83;;;5.43;;
2390;SDS011;22957;50.824;4.360;2023-04-23T04:46:54;8.50;;;5.80;;
2390;SDS011;22957;50.824;4.360;2023-04-23T04:49:20;8.60;;;5.40;;
2390;SDS011;22957;50.824;4.360;2023-04-23T04:51:46;9.87;;;5.53;;
2390;SDS011;22957;50.824;4.360;2023-04-23T04:54:12;7.30;;;5.23;;
2390;SDS011;22957;50.824;4.360;2023-04-23T04:56:38;8.73;;;5.37;;
2390;SDS011;22957;50.824;4.360;2023-04-23T04:59:03;8.17;;;5.00;;
2390;SDS011;22957;50.824;4.360;2023-04-23T05:01:29;10.13;;;5.40;;
2390;SDS011;22957;50.824;4.360;2023-04-23T05:03:55;7.47;;;5.00;;
2390;SDS011;22957;50.824;4.360;2023-04-23T05:06:21;8.00;;;4.60;;
2390;SDS011;22957;50.824;4.360;2023-04-23T05:08:47;7.73;;;4.90;;
2390;SDS011;22957;50.824;4.360;2023-04-23T05:11:13;6.63;;;3.33;;
2390;SDS011;22957;50.824;4.360;2023-04-23T05:13:44;5.97;;;3.63;;
2390;SDS011;22957;50.824;4.360;2023-04-23T05:16:10;5.70;;;3.40;;
2390;SDS011;22957;50.824;4.360;2023-04-23T05:18:38;4.73;;;3.77;;
2390;SDS011;22957;50.824;4.360;2023-04-23T05:21:05;7.50;;;3.40;;
2390;SDS011;22957;50.824;4.360;2023-04-23T05:23:31;8.37;;;3.70;;
2390;SDS011;22957;50.824;4.360;2023-04-23T05:25:57;13.10;;;3.97;;
2390;SDS011;22957;50.824;4.360;2023-04-23T05:28:23;12.17;;;4.63;;
2390;SDS011;22957;50.824;4.360;2023-04-23T05:30:49;6.77;;;3.37;;
2390;SDS011;22957;50.824;4.360;2023-04-23T05:33:15;6.47;;;3.17;;
2390;SDS011;22957;50.824;4.360;2023-04-23T05:35:41;6.47;;;3.60;;
2390;SDS011;22957;50.824;4.360;2023-04-23T05:38:07;9.50;;;3.07;;
2390;SDS011;22957;50.824;4.360;2023-04-23T05:40:33;5.47;;;3.00;;
2390;SDS011;22957;50.824;4.360;2023-04-23T05:42:59;4.90;;;3.30;;
2390;SDS011;22957;50.824;4.360;2023-04-23T05:45:25;8.97;;;2.90;;
2390;SDS011;22957;50.824;4.360;2023-04-23T05:47:51;4.63;;;3.03;;
2390;SDS011;22957;50.824;4.360;2023-04-23T05:50:17;9.23;;;2.53;;
2390;SDS011;22957;50.824;4.360;2023-04-23T05:52:43;6.67;;;2.63;;
2390;SDS011;22957;50.824;4.360;2023-04-23T05:55:09;5.40;;;2.27;;
2390;SDS011;22957;50.824;4.360;2023-04-23T05:57:35;8.20;;;2.73;;
2390;SDS011;22957;50.824;4.360;2023-04-23T06:00:03;8.27;;;2.20;;
2390;SDS011;22957;50.824;4.360;2023-04-23T06:02:29;6.97;;;1.97;;
2390;SDS011;22957;50.824;4.360;2023-04-23T06:04:57;6.93;;;2.60;;
2390;SDS011;22957;50.824;4.360;2023-04-23T06:07:23;8.80;;;2.30;;
2390;SDS011;22957;50.824;4.360;2023-04-23T06:09:49;6.80;;;3.07;;
2390;SDS011;22957;50.824;4.360;2023-04-23T06:12:14;6.00;;;2.50;;
2390;SDS011;22957;50.824;4.360;2023-04-23T06:14:40;8.63;;;2.53;;
2390;SDS011;22957;50.824;4.360;2023-04-23T06:17:06;4.40;;;2.03;;
2390;SDS011;22957;50.824;4.360;2023-04-23T06:19:31;8.10;;;2.70;;
2390;SDS011;22957;50.824;4.360;2023-04-23T06:21:57;6.00;;;2.10;;
2390;SDS011;22957;50.824;4.360;2023-04-23T06:24:22;6.30;;;2.07;;
2390;SDS011;22957;50.824;4.360;2023-04-23T06:26:48;3.00;;;2.07;;
2390;SDS011;22957;50.824;4.360;2023-04-23T06:29:14;9.10;;;2.13;;
2390;SDS011;22957;50.824;4.360;2023-04-23T06:31:40;6.03;;;2.00;;
2390;SDS011;22957;50.824;4.360;2023-04-23T06:34:05;7.83;;;1.67;;
2390;SDS011;22957;50.824;4.360;2023-04-23T06:36:31;3.20;;;1.70;;
2390;SDS011;22957;50.824;4.360;2023-04-23T06:38:57;4.80;;;1.70;;
2390;SDS011;22957;50.824;4.360;2023-04-23T06:41:22;8.60;;;2.20;;
2390;SDS011;22957;50.824;4.360;2023-04-23T06:43:48;7.57;;;1.90;;
2390;SDS011;22957;50.824;4.360;2023-04-23T06:46:14;4.07;;;1.77;;
2390;SDS011;22957;50.824;4.360;2023-04-23T06:48:39;6.07;;;1.70;;
2390;SDS011;22957;50.824;4.360;2023-04-23T06:51:05;4.13;;;1.80;;
2390;SDS011;22957;50.824;4.360;2023-04-23T06:53:31;9.67;;;2.10;;
2390;SDS011;22957;50.824;4.360;2023-04-23T06:55:57;5.13;;;1.50;;
2390;SDS011;22957;50.824;4.360;2023-04-23T06:58:23;6.23;;;2.10;;
2390;SDS011;22957;50.824;4.360;2023-04-23T07:00:55;8.47;;;2.07;;
2390;SDS011;22957;50.824;4.360;2023-04-23T07:03:23;6.20;;;1.60;;
2390;SDS011;22957;50.824;4.360;2023-04-23T07:05:50;5.00;;;1.47;;
2390;SDS011;22957;50.824;4.360;2023-04-23T07:08:16;4.00;;;1.70;;
2390;SDS011;22957;50.824;4.360;2023-04-23T07:10:41;3.90;;;1.70;;
2390;SDS011;22957;50.824;4.360;2023-04-23T07:13:07;4.77;;;1.70;;
2390;SDS011;22957;50.824;4.360;2023-04-23T07:15:32;7.80;;;2.10;;
2390;SDS011;22957;50.824;4.360;2023-04-23T07:17:58;6.93;;;1.60;;
2390;SDS011;22957;50.824;4.360;2023-04-23T07:20:24;6.73;;;2.13;;
2390;SDS011;22957;50.824;4.360;2023-04-23T07:22:50;6.00;;;1.83;;
2390;SDS011;22957;50.824;4.360;2023-04-23T07:25:16;7.27;;;2.10;;
2390;SDS011;22957;50.824;4.360;2023-04-23T07:27:42;5.17;;;2.00;;
2390;SDS011;22957;50.824;4.360;2023-04-23T07:30:08;4.87;;;1.73;;
2390;SDS011;22957;50.824;4.360;2023-04-23T07:32:34;8.70;;;2.00;;
2390;SDS011;22957;50.824;4.360;2023-04-23T07:34:59;5.80;;;1.77;;
2390;SDS011;22957;50.824;4.360;2023-04-23T07:37:25;4.53;;;1.50;;
2390;SDS011;22957;50.824;4.360;2023-04-23T07:39:50;5.30;;;1.80;;
2390;SDS011;22957;50.824;4.360;2023-04-23T07:42:17;8.33;;;1.60;;
2390;SDS011;22957;50.824;4.360;2023-04-23T07:44:43;5.80;;;2.20;;
2390;SDS011;22957;50.824;4.360;2023-04-23T07:47:08;5.43;;;2.03;;
2390;SDS011;22957;50.824;4.360;2023-04-23T07:49:35;6.33;;;1.63;;
2390;SDS011;22957;50.824;4.360;2023-04-23T07:52:01;3.03;;;1.40;;
2390;SDS011;22957;50.824;4.360;2023-04-23T07:54:26;5.17;;;1.70;;
2390;SDS011;22957;50.824;4.360;2023-04-23T07:56:52;5.60;;;1.70;;
2390;SDS011;22957;50.824;4.360;2023-04-23T07:59:18;4.17;;;1.60;;
2390;SDS011;22957;50.824;4.360;2023-04-23T08:01:43;6.13;;;1.77;;
2390;SDS011;22957;50.824;4.360;2023-04-23T08:04:10;8.07;;;1.83;;
2390;SDS011;22957;50.824;4.360;2023-04-23T08:06:35;6.40;;;1.83;;
2390;SDS011;22957;50.824;4.360;2023-04-23T08:09:02;8.73;;;1.97;;
2390;SDS011;22957;50.824;4.360;2023-04-23T08:11:30;6.17;;;2.00;;
2390;SDS011;22957;50.824;4.360;2023-04-23T08:13:56;8.77;;;1.87;;
2390;SDS011;22957;50.824;4.360;2023-04-23T08:16:22;6.80;;;1.50;;
2390;SDS011;22957;50.824;4.360;2023-04-23T08:18:48;4.10;;;1.40;;
2390;SDS011;22957;50.824;4.360;2023-04-23T08:21:13;9.00;;;1.67;;
2390;SDS011;22957;50.824;4.360;2023-04-23T08:23:39;7.00;;;1.47;;
2390;SDS011;22957;50.824;4.360;2023-04-23T08:26:05;4.47;;;1.70;;
2390;SDS011;22957;50.824;4.360;2023-04-23T08:28:30;3.60;;;1.30;;
2390;SDS011;22957;50.824;4.360;2023-04-23T08:30:56;5.03;;;1.77;;
2390;SDS011;22957;50.824;4.360;2023-04-23T08:33:21;6.53;;;1.90;;
2390;SDS011;22957;50.824;4.360;2023-04-23T08:35:47;6.33;;;1.73;;
2390;SDS011;22957;50.824;4.360;2023-04-23T08:38:13;6.20;;;2.07;;
2390;SDS011;22957;50.824;4.360;2023-04-23T08:40:38;6.80;;;1.97;;
2390;SDS011;22957;50.824;4.360;2023-04-23T08:43:12;4.40;;;1.53;;
2390;SDS011;22957;50.824;4.360;2023-04-23T08:45:45;6.27;;;1.37;;
2390;SDS011;22957;50.824;4.360;2023-04-23T08:48:11;4.13;;;1.67;;
2390;SDS011;22957;50.824;4.360;2023-04-23T08:50:38;3.30;;;1.50;;
2390;SDS011;22957;50.824;4.360;2023-04-23T08:53:07;7.50;;;1.40;;
2390;SDS011;22957;50.824;4.360;2023-04-23T08:55:34;4.53;;;1.50;;
2390;SDS011;22957;50.824;4.360;2023-04-23T08:58:00;4.90;;;1.10;;
2390;SDS011;22957;50.824;4.360;2023-04-23T09:00:30;7.67;;;1.40;;
2390;SDS011;22957;50.824;4.360;2023-04-23T09:02:57;8.43;;;1.73;;
2390;SDS011;22957;50.824;4.360;2023-04-23T09:05:22;12.63;;;1.73;;
2390;SDS011;22957;50.824;4.360;2023-04-23T09:07:48;4.70;;;1.30;;
2390;SDS011;22957;50.824;4.360;2023-04-23T09:10:14;4.73;;;1.60;;
2390;SDS011;22957;50.824;4.360;2023-04-23T09:12:40;4.47;;;1.40;;
2390;SDS011;22957;50.824;4.360;2023-04-23T09:15:07;5.90;;;1.83;;
2390;SDS011;22957;50.824;4.360;2023-04-23T09:17:40;12.37;;;3.20;;
2390;SDS011;22957;50.824;4.360;2023-04-23T09:20:08;6.60;;;1.30;;
2390;SDS011;22957;50.824;4.360;2023-04-23T09:25:12;6.63;;;1.60;;
2390;SDS011;22957;50.824;4.360;2023-04-23T09:27:41;4.97;;;1.30;;
2390;SDS011;22957;50.824;4.360;2023-04-23T09:30:07;9.73;;;1.83;;
2390;SDS011;22957;50.824;4.360;2023-04-23T09:32:35;4.00;;;1.20;;
2390;SDS011;22957;50.824;4.360;2023-04-23T09:35:06;8.97;;;1.40;;
2390;SDS011;22957;50.824;4.360;2023-04-23T09:37:33;4.33;;;1.30;;
2390;SDS011;22957;50.824;4.360;2023-04-23T09:40:03;5.90;;;1.43;;
2390;SDS011;22957;50.824;4.360;2023-04-23T09:42:34;9.77;;;1.47;;
2390;SDS011;22957;50.824;4.360;2023-04-23T09:45:04;6.03;;;1.30;;
2390;SDS011;22957;50.824;4.360;2023-04-23T09:47:54;7.53;;;1.10;;
2390;SDS011;22957;50.824;4.360;2023-04-23T09:50:19;5.60;;;1.20;;
2390;SDS011;22957;50.824;4.360;2023-04-23T09:52:55;4.87;;;1.30;;
2390;SDS011;22957;50.824;4.360;2023-04-23T09:55:28;2.83;;;1.10;;
2390;SDS011;22957;50.824;4.360;2023-04-23T09:57:55;5.93;;;1.20;;
2390;SDS011;22957;50.824;4.360;2023-04-23T10:00:22;6.50;;;1.27;;
2390;SDS011;22957;50.824;4.360;2023-04-23T10:02:53;6.03;;;1.20;;
2390;SDS011;22957;50.824;4.360;2023-04-23T10:05:19;5.73;;;1.23;;
2390;SDS011;22957;50.824;4.360;2023-04-23T10:07:46;2.90;;;1.00;;
2390;SDS011;22957;50.824;4.360;2023-04-23T10:10:16;6.40;;;1.27;;
2390;SDS011;22957;50.824;4.360;2023-04-23T10:12:42;10.27;;;1.20;;
2390;SDS011;22957;50.824;4.360;2023-04-23T10:15:09;6.33;;;1.70;;
2390;SDS011;22957;50.824;4.360;2023-04-23T10:17:36;11.60;;;1.67;;
2390;SDS011;22957;50.824;4.360;2023-04-23T10:20:03;4.90;;;1.20;;
2390;SDS011;22957;50.824;4.360;2023-04-23T10:22:31;5.87;;;1.30;;
2390;SDS011;22957;50.824;4.360;2023-04-23T10:24:57;4.53;;;1.20;;
2390;SDS011;22957;50.824;4.360;2023-04-23T10:27:28;6.10;;;1.20;;
2390;SDS011;22957;50.824;4.360;2023-04-23T10:29:58;4.47;;;1.63;;
2390;SDS011;22957;50.824;4.360;2023-04-23T10:32:25;7.33;;;1.30;;
2390;SDS011;22957;50.824;4.360;2023-04-23T10:34:52;8.53;;;1.40;;
2390;SDS011;22957;50.824;4.360;2023-04-23T10:37:18;6.90;;;1.30;;
2390;SDS011;22957;50.824;4.360;2023-04-23T10:39:46;6.70;;;1.70;;
2390;SDS011;22957;50.824;4.360;2023-04-23T10:42:15;5.37;;;1.30;;
2390;SDS011;22957;50.824;4.360;2023-04-23T10:44:42;6.10;;;1.20;;
2390;SDS011;22957;50.824;4.360;2023-04-23T10:47:11;10.07;;;1.30;;
2390;SDS011;22957;50.824;4.360;2023-04-23T10:49:38;5.87;;;1.40;;
2390;SDS011;22957;50.824;4.360;2023-04-23T10:52:07;8.80;;;1.60;;
2390;SDS011;22957;50.824;4.360;2023-04-23T10:54:43;8.43;;;1.93;;
2390;SDS011;22957;50.824;4.360;2023-04-23T10:57:21;4.93;;;1.20;;
2390;SDS011;22957;50.824;4.360;2023-04-23T10:59:51;5.03;;;1.33;;
2390;SDS011;22957;50.824;4.360;2023-04-23T11:02:18;6.63;;;1.10;;
2390;SDS011;22957;50.824;4.360;2023-04-23T11:04:45;7.60;;;1.30;;
2390;SDS011;22957;50.824;4.360;2023-04-23T11:07:17;5.13;;;1.50;;
2390;SDS011;22957;50.824;4.360;2023-04-23T11:09:46;7.63;;;1.27;;
2390;SDS011;22957;50.824;4.360;2023-04-23T11:14:56;3.77;;;1.20;;
2390;SDS011;22957;50.824;4.360;2023-04-23T11:22:37;4.50;;;1.00;;
2390;SDS011;22957;50.824;4.360;2023-04-23T11:25:10;9.27;;;1.20;;
2390;SDS011;22957;50.824;4.360;2023-04-23T11:27:39;2.80;;;1.07;;
2390;SDS011;22957;50.824;4.360;2023-04-23T11:32:39;5.27;;;1.30;;
2390;SDS011;22957;50.824;4.360;2023-04-23T11:35:06;5.37;;;1.40;;
2390;SDS011;22957;50.824;4.360;2023-04-23T11:37:36;4.60;;;1.20;;
2390;SDS011;22957;50.824;4.360;2023-04-23T11:40:07;3.80;;;1.13;;
2390;SDS011;22957;50.824;4.360;2023-04-23T11:42:44;3.20;;;1.10;;
2390;SDS011;22957;50.824;4.360;2023-04-23T11:45:22;3.33;;;1.00;;
2390;SDS011;22957;50.824;4.360;2023-04-23T11:47:53;7.23;;;1.30;;
2390;SDS011;22957;50.824;4.360;2023-04-23T11:50:21;6.17;;;1.33;;
2390;SDS011;22957;50.824;4.360;2023-04-23T11:52:49;6.30;;;1.70;;
2390;SDS011;22957;50.824;4.360;2023-04-23T11:55:14;5.17;;;1.40;;
2390;SDS011;22957;50.824;4.360;2023-04-23T11:57:48;7.17;;;1.37;;
2390;SDS011;22957;50.824;4.360;2023-04-23T12:00:15;3.10;;;1.03;;
2390;SDS011;22957;50.824;4.360;2023-04-23T12:02:49;6.70;;;1.47;;
2390;SDS011;22957;50.824;4.360;2023-04-23T12:05:29;6.90;;;1.40;;
2390;SDS011;22957;50.824;4.360;2023-04-23T12:13:23;5.60;;;1.30;;
2390;SDS011;22957;50.824;4.360;2023-04-23T12:15:52;5.63;;;1.53;;
2390;SDS011;22957;50.824;4.360;2023-04-23T12:18:25;3.70;;;1.67;;
2390;SDS011;22957;50.824;4.360;2023-04-23T12:20:52;6.97;;;2.00;;
2390;SDS011;22957;50.824;4.360;2023-04-23T12:23:17;4.23;;;1.40;;
2390;SDS011;22957;50.824;4.360;2023-04-23T12:25:43;6.23;;;1.73;;
2390;SDS011;22957;50.824;4.360;2023-04-23T12:28:09;11.23;;;1.53;;
2390;SDS011;22957;50.824;4.360;2023-04-23T12:30:41;6.37;;;1.90;;
2390;SDS011;22957;50.824;4.360;2023-04-23T12:33:09;4.60;;;1.30;;
2390;SDS011;22957;50.824;4.360;2023-04-23T12:35:39;5.83;;;1.37;;
2390;SDS011;22957;50.824;4.360;2023-04-23T12:38:20;7.33;;;1.60;;
2390;SDS011;22957;50.824;4.360;2023-04-23T12:40:48;3.97;;;1.20;;
2390;SDS011;22957;50.824;4.360;2023-04-23T12:43:13;4.87;;;1.50;;
2390;SDS011;22957;50.824;4.360;2023-04-23T12:45:39;5.60;;;1.40;;
2390;SDS011;22957;50.824;4.360;2023-04-23T12:48:05;4.90;;;1.53;;
2390;SDS011;22957;50.824;4.360;2023-04-23T12:50:30;5.70;;;1.50;;
2390;SDS011;22957;50.824;4.360;2023-04-23T12:52:56;5.17;;;2.27;;
2390;SDS011;22957;50.824;4.360;2023-04-23T12:55:21;6.73;;;1.30;;
2390;SDS011;22957;50.824;4.360;2023-04-23T12:57:47;6.67;;;2.03;;
2390;SDS011;22957;50.824;4.360;2023-04-23T13:00:13;8.80;;;1.60;;
2390;SDS011;22957;50.824;4.360;2023-04-23T13:02:39;6.97;;;1.67;;
2390;SDS011;22957;50.824;4.360;2023-04-23T13:05:04;6.60;;;1.77;;
2390;SDS011;22957;50.824;4.360;2023-04-23T13:07:30;3.57;;;1.33;;
2390;SDS011;22957;50.824;4.360;2023-04-23T13:09:56;4.73;;;1.40;;
2390;SDS011;22957;50.824;4.360;2023-04-23T13:12:23;5.73;;;1.80;;
2390;SDS011;22957;50.824;4.360;2023-04-23T13:14:49;5.03;;;1.63;;
2390;SDS011;22957;50.824;4.360;2023-04-23T13:17:14;4.57;;;1.30;;
2390;SDS011;22957;50.824;4.360;2023-04-23T13:19:40;4.80;;;1.23;;
2390;SDS011;22957;50.824;4.360;2023-04-23T13:22:06;4.50;;;1.73;;
2390;SDS011;22957;50.824;4.360;2023-04-23T13:24:31;6.07;;;1.40;;
2390;SDS011;22957;50.824;4.360;2023-04-23T13:26:57;5.40;;;1.30;;
2390;SDS011;22957;50.824;4.360;2023-04-23T13:29:23;3.83;;;1.70;;
2390;SDS011;22957;50.824;4.360;2023-04-23T13:31:51;4.03;;;1.50;;
2390;SDS011;22957;50.824;4.360;2023-04-23T13:34:18;5.00;;;2.03;;
2390;SDS011;22957;50.824;4.360;2023-04-23T13:36:43;6.00;;;1.70;;
2390;SDS011;22957;50.824;4.360;2023-04-23T13:39:09;5.80;;;1.60;;
2390;SDS011;22957;50.824;4.360;2023-04-23T13:41:38;3.23;;;1.60;;
2390;SDS011;22957;50.824;4.360;2023-04-23T13:44:04;3.50;;;1.90;;
2390;SDS011;22957;50.824;4.360;2023-04-23T13:46:29;6.03;;;1.60;;
2390;SDS011;22957;50.824;4.360;2023-04-23T13:48:55;3.73;;;1.30;;
2390;SDS011;22957;50.824;4.360;2023-04-23T13:51:21;2.60;;;1.47;;
2390;SDS011;22957;50.824;4.360;2023-04-23T13:53:46;2.70;;;1.27;;
2390;SDS011;22957;50.824;4.360;2023-04-23T13:56:12;4.87;;;1.80;;
2390;SDS011;22957;50.824;4.360;2023-04-23T13:58:38;5.17;;;1.60;;
2390;SDS011;22957;50.824;4.360;2023-04-23T14:01:07;7.00;;;1.80;;
2390;SDS011;22957;50.824;4.360;2023-04-23T14:03:35;3.07;;;1.70;;
2390;SDS011;22957;50.824;4.360;2023-04-23T14:06:01;4.97;;;1.43;;
2390;SDS011;22957;50.824;4.360;2023-04-23T14:08:27;2.23;;;1.10;;
2390;SDS011;22957;50.824;4.360;2023-04-23T14:10:52;3.90;;;1.73;;
2390;SDS011;22957;50.824;4.360;2023-04-23T14:13:18;4.97;;;1.43;;
2390;SDS011;22957;50.824;4.360;2023-04-23T14:15:44;6.27;;;2.10;;
2390;SDS011;22957;50.824;4.360;2023-04-23T14:18:09;3.90;;;1.47;;
2390;SDS011;22957;50.824;4.360;2023-04-23T14:20:35;8.20;;;1.73;;
2390;SDS011;22957;50.824;4.360;2023-04-23T14:23:02;5.03;;;2.00;;
2390;SDS011;22957;50.824;4.360;2023-04-23T14:25:39;3.00;;;1.60;;
2390;SDS011;22957;50.824;4.360;2023-04-23T14:28:26;2.67;;;1.53;;
2390;SDS011;22957;50.824;4.360;2023-04-23T14:30:57;1.93;;;1.60;;
2390;SDS011;22957;50.824;4.360;2023-04-23T14:33:24;4.03;;;1.50;;
2390;SDS011;22957;50.824;4.360;2023-04-23T14:35:49;3.33;;;1.77;;
2390;SDS011;22957;50.824;4.360;2023-04-23T14:38:15;3.70;;;1.40;;
2390;SDS011;22957;50.824;4.360;2023-04-23T14:40:41;4.17;;;1.73;;
2390;SDS011;22957;50.824;4.360;2023-04-23T14:43:07;8.30;;;1.70;;
2390;SDS011;22957;50.824;4.360;2023-04-23T14:45:32;4.60;;;1.70;;
2390;SDS011;22957;50.824;4.360;2023-04-23T14:47:58;3.40;;;1.40;;
2390;SDS011;22957;50.824;4.360;2023-04-23T14:50:24;3.83;;;1.40;;
2390;SDS011;22957;50.824;4.360;2023-04-23T14:52:49;2.47;;;1.50;;
2390;SDS011;22957;50.824;4.360;2023-04-23T14:55:16;2.50;;;1.10;;
2390;SDS011;22957;50.824;4.360;2023-04-23T14:57:41;2.93;;;1.37;;
2390;SDS011;22957;50.824;4.360;2023-04-23T15:00:08;4.10;;;1.40;;
2390;SDS011;22957;50.824;4.360;2023-04-23T15:02:37;1.97;;;1.20;;
2390;SDS011;22957;50.824;4.360;2023-04-23T15:05:05;5.47;;;1.80;;
2390;SDS011;22957;50.824;4.360;2023-04-23T15:07:37;3.83;;;1.60;;
2390;SDS011;22957;50.824;4.360;2023-04-23T15:10:03;2.77;;;1.27;;
2390;SDS011;22957;50.824;4.360;2023-04-23T15:12:48;1.73;;;1.33;;